sensor_id;sensor_type;location;lat;lon;timestamp;P1;durP1;ratioP1;P2;durP2;ratioP2
71484;SDS011;59300;52.074;4.758;2022-08-01T00:01:28;19.42;;;9.95;;
71484;SDS011;59300;52.074;4.758;2022-08-01T00:04:47;19.88;;;9.70;;
71484;SDS011;59300;52.074;4.758;2022-08-01T00:08:06;22.60;;;10.70;;
71484;SDS011;59300;52.074;4.758;2022-08-01T00:11:25;21.02;;;10.02;;
71484;SDS011;59300;52.074;4.758;2022-08-01T00:14:44;23.48;;;10.90;;
71484;SDS011;59300;52.074;4.758;2022-08-01T00:18:03;19.92;;;10.45;;
71484;SDS011;59300;52.074;4.758;2022-08-01T00:21:22;21.10;;;9.98;;
71484;SDS011;59300;52.074;4.758;2022-08-01T00:24:41;22.80;;;10.60;;
71484;SDS011;59300;52.074;4.758;2022-08-01T00:28:00;21.70;;;10.05;;
71484;SDS011;59300;52.074;4.758;2022-08-01T00:31:19;22.88;;;10.35;;
71484;SDS011;59300;52.074;4.758;2022-08-01T00:34:38;22.10;;;10.88;;
71484;SDS011;59300;52.074;4.758;2022-08-01T00:37:57;23.70;;;10.63;;
71484;SDS011;59300;52.074;4.758;2022-08-01T00:41:16;23.67;;;10.57;;
71484;SDS011;59300;52.074;4.758;2022-08-01T00:44:35;29.50;;;11.45;;
71484;SDS011;59300;52.074;4.758;2022-08-01T00:47:55;27.05;;;10.50;;
71484;SDS011;59300;52.074;4.758;2022-08-01T00:51:13;22.10;;;10.48;;
71484;SDS011;59300;52.074;4.758;2022-08-01T00:54:33;22.73;;;10.43;;
71484;SDS011;59300;52.074;4.758;2022-08-01T00:57:53;19.48;;;9.32;;
71484;SDS011;59300;52.074;4.758;2022-08-01T01:01:13;22.10;;;10.63;;
71484;SDS011;59300;52.074;4.758;2022-08-01T01:04:32;25.45;;;10.40;;
71484;SDS011;59300;52.074;4.758;2022-08-01T01:11:28;23.95;;;9.98;;
71484;SDS011;59300;52.074;4.758;2022-08-01T01:26:04;26.38;;;11.13;;
71484;SDS011;59300;52.074;4.758;2022-08-01T01:29:41;28.98;;;11.05;;
71484;SDS011;59300;52.074;4.758;2022-08-01T01:36:22;22.00;;;9.07;;
71484;SDS011;59300;52.074;4.758;2022-08-01T01:39:44;20.33;;;8.52;;
71484;SDS011;59300;52.074;4.758;2022-08-01T01:43:08;19.55;;;8.88;;
71484;SDS011;59300;52.074;4.758;2022-08-01T01:46:29;19.52;;;8.13;;
71484;SDS011;59300;52.074;4.758;2022-08-01T01:49:49;16.75;;;8.52;;
71484;SDS011;59300;52.074;4.758;2022-08-01T01:53:12;19.00;;;8.52;;
71484;SDS011;59300;52.074;4.758;2022-08-01T01:56:34;17.55;;;8.27;;
71484;SDS011;59300;52.074;4.758;2022-08-01T01:59:54;19.10;;;9.50;;
71484;SDS011;59300;52.074;4.758;2022-08-01T02:03:14;19.75;;;10.80;;
71484;SDS011;59300;52.074;4.758;2022-08-01T02:06:36;19.45;;;9.38;;
71484;SDS011;59300;52.074;4.758;2022-08-01T02:09:57;15.90;;;8.70;;
71484;SDS011;59300;52.074;4.758;2022-08-01T02:13:18;14.35;;;8.15;;
71484;SDS011;59300;52.074;4.758;2022-08-01T02:16:39;13.35;;;7.00;;
71484;SDS011;59300;52.074;4.758;2022-08-01T02:20:01;9.77;;;6.30;;
71484;SDS011;59300;52.074;4.758;2022-08-01T02:23:20;11.13;;;5.82;;
71484;SDS011;59300;52.074;4.758;2022-08-01T02:26:41;9.70;;;5.85;;
71484;SDS011;59300;52.074;4.758;2022-08-01T02:30:03;8.38;;;5.45;;
71484;SDS011;59300;52.074;4.758;2022-08-01T02:33:26;10.27;;;5.75;;
71484;SDS011;59300;52.074;4.758;2022-08-01T02:36:51;11.02;;;5.40;;
71484;SDS011;59300;52.074;4.758;2022-08-01T02:40:15;10.15;;;5.13;;
71484;SDS011;59300;52.074;4.758;2022-08-01T02:43:36;10.75;;;5.82;;
71484;SDS011;59300;52.074;4.758;2022-08-01T02:46:58;11.57;;;6.15;;
71484;SDS011;59300;52.074;4.758;2022-08-01T02:50:19;11.38;;;5.55;;
71484;SDS011;59300;52.074;4.758;2022-08-01T02:53:39;8.07;;;5.45;;
71484;SDS011;59300;52.074;4.758;2022-08-01T02:57:01;9.00;;;5.68;;
71484;SDS011;59300;52.074;4.758;2022-08-01T03:00:22;9.15;;;6.03;;
71484;SDS011;59300;52.074;4.758;2022-08-01T03:03:42;9.85;;;6.20;;
71484;SDS011;59300;52.074;4.758;2022-08-01T03:07:03;11.30;;;7.40;;
71484;SDS011;59300;52.074;4.758;2022-08-01T03:10:26;11.93;;;5.82;;
71484;SDS011;59300;52.074;4.758;2022-08-01T03:13:46;10.07;;;6.53;;
71484;SDS011;59300;52.074;4.758;2022-08-01T03:17:07;17.08;;;7.10;;
71484;SDS011;59300;52.074;4.758;2022-08-01T03:20:27;10.75;;;6.43;;
71484;SDS011;59300;52.074;4.758;2022-08-01T03:23:50;13.93;;;7.18;;
71484;SDS011;59300;52.074;4.758;2022-08-01T03:27:11;15.52;;;7.10;;
71484;SDS011;59300;52.074;4.758;2022-08-01T03:30:31;9.80;;;6.28;;
71484;SDS011;59300;52.074;4.758;2022-08-01T03:33:51;11.90;;;6.95;;
71484;SDS011;59300;52.074;4.758;2022-08-01T03:37:12;10.05;;;6.30;;
71484;SDS011;59300;52.074;4.758;2022-08-01T03:40:53;12.07;;;6.50;;
71484;SDS011;59300;52.074;4.758;2022-08-01T03:44:16;15.15;;;6.60;;
71484;SDS011;59300;52.074;4.758;2022-08-01T03:47:42;12.48;;;6.80;;
71484;SDS011;59300;52.074;4.758;2022-08-01T03:51:02;13.77;;;7.20;;
71484;SDS011;59300;52.074;4.758;2022-08-01T03:54:24;16.20;;;7.57;;
71484;SDS011;59300;52.074;4.758;2022-08-01T03:57:49;16.83;;;7.72;;
71484;SDS011;59300;52.074;4.758;2022-08-01T04:01:10;12.85;;;7.25;;
71484;SDS011;59300;52.074;4.758;2022-08-01T04:04:29;12.48;;;7.03;;
71484;SDS011;59300;52.074;4.758;2022-08-01T04:07:49;12.57;;;7.28;;
71484;SDS011;59300;52.074;4.758;2022-08-01T04:11:10;16.40;;;7.95;;
71484;SDS011;59300;52.074;4.758;2022-08-01T04:14:29;20.67;;;9.30;;
71484;SDS011;59300;52.074;4.758;2022-08-01T04:17:48;18.50;;;8.95;;
71484;SDS011;59300;52.074;4.758;2022-08-01T04:21:07;18.58;;;8.32;;
71484;SDS011;59300;52.074;4.758;2022-08-01T04:24:26;15.77;;;8.00;;
71484;SDS011;59300;52.074;4.758;2022-08-01T04:27:47;18.10;;;8.43;;
71484;SDS011;59300;52.074;4.758;2022-08-01T04:31:08;14.15;;;7.90;;
71484;SDS011;59300;52.074;4.758;2022-08-01T04:34:30;13.32;;;6.93;;
71484;SDS011;59300;52.074;4.758;2022-08-01T04:37:50;14.73;;;7.15;;
71484;SDS011;59300;52.074;4.758;2022-08-01T04:41:11;12.50;;;6.35;;
71484;SDS011;59300;52.074;4.758;2022-08-01T04:44:31;13.50;;;6.70;;
71484;SDS011;59300;52.074;4.758;2022-08-01T04:47:51;10.27;;;6.10;;
71484;SDS011;59300;52.074;4.758;2022-08-01T04:51:12;10.05;;;6.13;;
71484;SDS011;59300;52.074;4.758;2022-08-01T04:54:35;8.45;;;5.55;;
71484;SDS011;59300;52.074;4.758;2022-08-01T04:57:54;8.57;;;5.22;;
71484;SDS011;59300;52.074;4.758;2022-08-01T05:01:13;10.15;;;5.60;;
71484;SDS011;59300;52.074;4.758;2022-08-01T05:04:32;9.88;;;5.30;;
71484;SDS011;59300;52.074;4.758;2022-08-01T05:07:51;9.15;;;5.60;;
71484;SDS011;59300;52.074;4.758;2022-08-01T05:11:10;8.43;;;5.28;;
71484;SDS011;59300;52.074;4.758;2022-08-01T05:14:29;7.65;;;5.63;;
71484;SDS011;59300;52.074;4.758;2022-08-01T05:17:48;8.70;;;5.20;;
71484;SDS011;59300;52.074;4.758;2022-08-01T05:21:07;7.97;;;5.63;;
71484;SDS011;59300;52.074;4.758;2022-08-01T05:24:28;7.38;;;5.38;;
71484;SDS011;59300;52.074;4.758;2022-08-01T05:27:47;7.78;;;5.03;;
71484;SDS011;59300;52.074;4.758;2022-08-01T05:31:06;7.28;;;5.03;;
71484;SDS011;59300;52.074;4.758;2022-08-01T05:34:26;7.95;;;4.90;;
71484;SDS011;59300;52.074;4.758;2022-08-01T05:37:45;10.35;;;5.15;;
71484;SDS011;59300;52.074;4.758;2022-08-01T05:41:04;8.30;;;4.93;;
71484;SDS011;59300;52.074;4.758;2022-08-01T05:44:23;6.43;;;5.10;;
71484;SDS011;59300;52.074;4.758;2022-08-01T05:47:42;8.00;;;5.50;;
71484;SDS011;59300;52.074;4.758;2022-08-01T05:51:01;8.18;;;5.30;;
71484;SDS011;59300;52.074;4.758;2022-08-01T05:54:21;6.72;;;5.47;;
71484;SDS011;59300;52.074;4.758;2022-08-01T05:57:40;7.43;;;5.28;;
71484;SDS011;59300;52.074;4.758;2022-08-01T06:00:59;10.90;;;6.07;;
71484;SDS011;59300;52.074;4.758;2022-08-01T06:04:18;9.15;;;5.90;;
71484;SDS011;59300;52.074;4.758;2022-08-01T06:07:37;9.23;;;6.88;;
71484;SDS011;59300;52.074;4.758;2022-08-01T06:10:56;8.43;;;6.35;;
71484;SDS011;59300;52.074;4.758;2022-08-01T06:14:15;8.85;;;5.93;;
71484;SDS011;59300;52.074;4.758;2022-08-01T06:17:34;10.55;;;6.50;;
71484;SDS011;59300;52.074;4.758;2022-08-01T06:20:53;9.65;;;6.00;;
71484;SDS011;59300;52.074;4.758;2022-08-01T06:24:12;8.57;;;6.20;;
71484;SDS011;59300;52.074;4.758;2022-08-01T06:27:33;8.77;;;7.15;;
71484;SDS011;59300;52.074;4.758;2022-08-01T06:30:52;10.98;;;6.88;;
71484;SDS011;59300;52.074;4.758;2022-08-01T06:34:11;9.77;;;8.00;;
71484;SDS011;59300;52.074;4.758;2022-08-01T06:37:31;12.50;;;7.60;;
71484;SDS011;59300;52.074;4.758;2022-08-01T06:40:50;13.95;;;8.55;;
71484;SDS011;59300;52.074;4.758;2022-08-01T06:44:09;16.38;;;6.20;;
71484;SDS011;59300;52.074;4.758;2022-08-01T06:47:28;15.73;;;4.82;;
71484;SDS011;59300;52.074;4.758;2022-08-01T06:50:47;14.15;;;4.70;;
71484;SDS011;59300;52.074;4.758;2022-08-01T06:54:06;15.88;;;4.65;;
71484;SDS011;59300;52.074;4.758;2022-08-01T06:57:25;18.13;;;5.38;;
71484;SDS011;59300;52.074;4.758;2022-08-01T07:00:44;16.92;;;5.78;;
71484;SDS011;59300;52.074;4.758;2022-08-01T07:04:03;12.65;;;4.20;;
71484;SDS011;59300;52.074;4.758;2022-08-01T07:07:22;14.65;;;4.22;;
71484;SDS011;59300;52.074;4.758;2022-08-01T07:10:41;12.55;;;4.13;;
71484;SDS011;59300;52.074;4.758;2022-08-01T07:14:00;16.95;;;4.38;;
71484;SDS011;59300;52.074;4.758;2022-08-01T07:17:19;12.75;;;4.40;;
71484;SDS011;59300;52.074;4.758;2022-08-01T07:20:38;18.67;;;4.10;;
71484;SDS011;59300;52.074;4.758;2022-08-01T07:23:57;17.88;;;4.63;;
71484;SDS011;59300;52.074;4.758;2022-08-01T07:27:15;17.38;;;3.80;;
71484;SDS011;59300;52.074;4.758;2022-08-01T07:30:34;17.30;;;3.78;;
71484;SDS011;59300;52.074;4.758;2022-08-01T07:33:53;19.05;;;3.50;;
71484;SDS011;59300;52.074;4.758;2022-08-01T07:37:12;13.70;;;3.63;;
71484;SDS011;59300;52.074;4.758;2022-08-01T07:40:31;13.50;;;2.90;;
71484;SDS011;59300;52.074;4.758;2022-08-01T07:43:51;8.55;;;2.83;;
71484;SDS011;59300;52.074;4.758;2022-08-01T07:47:10;10.88;;;3.25;;
71484;SDS011;59300;52.074;4.758;2022-08-01T07:50:29;14.50;;;2.92;;
71484;SDS011;59300;52.074;4.758;2022-08-01T07:53:47;12.48;;;3.05;;
71484;SDS011;59300;52.074;4.758;2022-08-01T07:57:06;10.30;;;2.97;;
71484;SDS011;59300;52.074;4.758;2022-08-01T08:00:25;13.35;;;2.63;;
71484;SDS011;59300;52.074;4.758;2022-08-01T08:03:44;9.93;;;2.60;;
71484;SDS011;59300;52.074;4.758;2022-08-01T08:07:03;9.02;;;2.25;;
71484;SDS011;59300;52.074;4.758;2022-08-01T08:10:22;10.57;;;2.80;;
71484;SDS011;59300;52.074;4.758;2022-08-01T08:13:41;8.00;;;2.33;;
71484;SDS011;59300;52.074;4.758;2022-08-01T08:17:00;10.85;;;2.28;;
71484;SDS011;59300;52.074;4.758;2022-08-01T08:20:19;9.38;;;2.45;;
71484;SDS011;59300;52.074;4.758;2022-08-01T08:23:38;13.02;;;2.63;;
71484;SDS011;59300;52.074;4.758;2022-08-01T08:26:58;10.05;;;2.30;;
71484;SDS011;59300;52.074;4.758;2022-08-01T08:30:17;13.95;;;2.40;;
71484;SDS011;59300;52.074;4.758;2022-08-01T08:33:36;12.18;;;2.58;;
71484;SDS011;59300;52.074;4.758;2022-08-01T08:36:55;12.27;;;2.47;;
71484;SDS011;59300;52.074;4.758;2022-08-01T08:40:15;13.77;;;2.50;;
71484;SDS011;59300;52.074;4.758;2022-08-01T08:43:34;9.10;;;2.40;;
71484;SDS011;59300;52.074;4.758;2022-08-01T08:46:54;12.90;;;2.45;;
71484;SDS011;59300;52.074;4.758;2022-08-01T08:50:16;10.02;;;1.83;;
71484;SDS011;59300;52.074;4.758;2022-08-01T08:53:35;14.63;;;2.00;;
71484;SDS011;59300;52.074;4.758;2022-08-01T08:56:54;13.35;;;2.03;;
71484;SDS011;59300;52.074;4.758;2022-08-01T09:00:14;11.93;;;2.40;;
71484;SDS011;59300;52.074;4.758;2022-08-01T09:03:34;13.18;;;2.00;;
71484;SDS011;59300;52.074;4.758;2022-08-01T09:06:53;11.77;;;2.10;;
71484;SDS011;59300;52.074;4.758;2022-08-01T09:10:12;9.10;;;1.80;;
71484;SDS011;59300;52.074;4.758;2022-08-01T09:13:31;9.00;;;1.90;;
71484;SDS011;59300;52.074;4.758;2022-08-01T09:17:06;13.35;;;1.80;;
71484;SDS011;59300;52.074;4.758;2022-08-01T09:20:27;8.20;;;2.22;;
71484;SDS011;59300;52.074;4.758;2022-08-01T09:23:49;8.35;;;1.88;;
71484;SDS011;59300;52.074;4.758;2022-08-01T09:27:20;6.50;;;1.63;;
71484;SDS011;59300;52.074;4.758;2022-08-01T09:30:39;7.88;;;1.60;;
71484;SDS011;59300;52.074;4.758;2022-08-01T09:33:59;7.50;;;1.73;;
71484;SDS011;59300;52.074;4.758;2022-08-01T09:37:19;9.48;;;1.77;;
71484;SDS011;59300;52.074;4.758;2022-08-01T09:40:53;10.50;;;1.95;;
71484;SDS011;59300;52.074;4.758;2022-08-01T09:44:18;10.32;;;2.25;;
71484;SDS011;59300;52.074;4.758;2022-08-01T09:47:37;9.27;;;2.20;;
71484;SDS011;59300;52.074;4.758;2022-08-01T09:50:58;6.88;;;1.90;;
71484;SDS011;59300;52.074;4.758;2022-08-01T09:54:27;8.40;;;1.92;;
71484;SDS011;59300;52.074;4.758;2022-08-01T09:57:56;8.27;;;1.90;;
71484;SDS011;59300;52.074;4.758;2022-08-01T10:01:16;9.30;;;2.00;;
71484;SDS011;59300;52.074;4.758;2022-08-01T10:04:35;9.43;;;1.80;;
71484;SDS011;59300;52.074;4.758;2022-08-01T10:08:03;9.23;;;1.75;;
71484;SDS011;59300;52.074;4.758;2022-08-01T10:11:22;8.65;;;1.90;;
71484;SDS011;59300;52.074;4.758;2022-08-01T10:14:43;11.20;;;2.22;;
71484;SDS011;59300;52.074;4.758;2022-08-01T10:18:04;11.13;;;2.40;;
71484;SDS011;59300;52.074;4.758;2022-08-01T10:21:27;12.70;;;2.15;;
71484;SDS011;59300;52.074;4.758;2022-08-01T10:24:47;6.97;;;2.20;;
71484;SDS011;59300;52.074;4.758;2022-08-01T10:28:15;11.48;;;2.33;;
71484;SDS011;59300;52.074;4.758;2022-08-01T10:31:36;7.82;;;2.05;;
71484;SDS011;59300;52.074;4.758;2022-08-01T10:34:56;10.00;;;1.95;;
71484;SDS011;59300;52.074;4.758;2022-08-01T10:38:15;7.07;;;1.50;;
71484;SDS011;59300;52.074;4.758;2022-08-01T10:41:34;9.57;;;2.17;;
71484;SDS011;59300;52.074;4.758;2022-08-01T10:44:54;6.90;;;1.95;;
71484;SDS011;59300;52.074;4.758;2022-08-01T10:51:52;11.85;;;2.67;;
71484;SDS011;59300;52.074;4.758;2022-08-01T10:55:12;13.10;;;2.30;;
71484;SDS011;59300;52.074;4.758;2022-08-01T10:58:35;9.25;;;2.22;;
71484;SDS011;59300;52.074;4.758;2022-08-01T11:01:56;17.35;;;2.97;;
71484;SDS011;59300;52.074;4.758;2022-08-01T11:05:20;6.28;;;1.73;;
71484;SDS011;59300;52.074;4.758;2022-08-01T11:08:41;16.33;;;2.35;;
71484;SDS011;59300;52.074;4.758;2022-08-01T11:12:16;8.63;;;1.90;;
71484;SDS011;59300;52.074;4.758;2022-08-01T11:15:36;9.27;;;1.80;;
71484;SDS011;59300;52.074;4.758;2022-08-01T11:18:57;9.27;;;2.30;;
71484;SDS011;59300;52.074;4.758;2022-08-01T11:22:16;10.18;;;2.47;;
71484;SDS011;59300;52.074;4.758;2022-08-01T11:29:11;6.25;;;2.08;;
71484;SDS011;59300;52.074;4.758;2022-08-01T11:32:32;9.60;;;2.67;;
71484;SDS011;59300;52.074;4.758;2022-08-01T11:39:29;8.85;;;1.95;;
71484;SDS011;59300;52.074;4.758;2022-08-01T11:42:48;12.18;;;2.42;;
71484;SDS011;59300;52.074;4.758;2022-08-01T11:46:08;8.70;;;2.10;;
71484;SDS011;59300;52.074;4.758;2022-08-01T11:52:59;9.48;;;2.28;;
71484;SDS011;59300;52.074;4.758;2022-08-01T11:56:20;10.13;;;2.00;;
71484;SDS011;59300;52.074;4.758;2022-08-01T11:59:43;10.63;;;2.30;;
71484;SDS011;59300;52.074;4.758;2022-08-01T12:03:06;6.75;;;2.10;;
71484;SDS011;59300;52.074;4.758;2022-08-01T12:06:30;5.72;;;1.63;;
71484;SDS011;59300;52.074;4.758;2022-08-01T12:09:55;8.75;;;2.25;;
71484;SDS011;59300;52.074;4.758;2022-08-01T12:13:19;9.02;;;2.00;;
71484;SDS011;59300;52.074;4.758;2022-08-01T12:16:39;8.13;;;1.92;;
71484;SDS011;59300;52.074;4.758;2022-08-01T12:19:58;7.18;;;1.90;;
71484;SDS011;59300;52.074;4.758;2022-08-01T12:23:17;9.48;;;2.08;;
71484;SDS011;59300;52.074;4.758;2022-08-01T12:26:39;7.32;;;2.00;;
71484;SDS011;59300;52.074;4.758;2022-08-01T12:30:00;8.70;;;1.70;;
71484;SDS011;59300;52.074;4.758;2022-08-01T12:33:19;7.35;;;1.77;;
71484;SDS011;59300;52.074;4.758;2022-08-01T12:36:39;7.10;;;1.60;;
71484;SDS011;59300;52.074;4.758;2022-08-01T12:39:57;5.82;;;1.92;;
71484;SDS011;59300;52.074;4.758;2022-08-01T12:43:19;12.77;;;1.92;;
71484;SDS011;59300;52.074;4.758;2022-08-01T12:46:39;7.25;;;2.08;;
71484;SDS011;59300;52.074;4.758;2022-08-01T12:49:59;8.10;;;2.08;;
71484;SDS011;59300;52.074;4.758;2022-08-01T12:53:18;6.40;;;1.70;;
71484;SDS011;59300;52.074;4.758;2022-08-01T12:56:38;7.88;;;1.85;;
71484;SDS011;59300;52.074;4.758;2022-08-01T13:00:14;7.78;;;2.00;;
71484;SDS011;59300;52.074;4.758;2022-08-01T13:03:34;7.93;;;2.00;;
71484;SDS011;59300;52.074;4.758;2022-08-01T13:06:53;8.85;;;2.00;;
71484;SDS011;59300;52.074;4.758;2022-08-01T13:10:13;5.38;;;1.60;;
71484;SDS011;59300;52.074;4.758;2022-08-01T13:17:02;7.97;;;2.00;;
71484;SDS011;59300;52.074;4.758;2022-08-01T13:20:24;9.10;;;1.98;;
71484;SDS011;59300;52.074;4.758;2022-08-01T13:23:31;6.10;;;1.85;;
71484;SDS011;59300;52.074;4.758;2022-08-01T13:29:46;6.53;;;1.52;;
71484;SDS011;59300;52.074;4.758;2022-08-01T13:32:59;9.25;;;1.90;;
71484;SDS011;59300;52.074;4.758;2022-08-01T13:35:59;7.60;;;1.90;;
71484;SDS011;59300;52.074;4.758;2022-08-01T13:39:00;6.68;;;1.88;;
71484;SDS011;59300;52.074;4.758;2022-08-01T13:42:01;7.80;;;2.03;;
71484;SDS011;59300;52.074;4.758;2022-08-01T13:45:03;8.45;;;2.08;;
71484;SDS011;59300;52.074;4.758;2022-08-01T13:48:04;4.78;;;1.70;;
71484;SDS011;59300;52.074;4.758;2022-08-01T13:51:05;8.52;;;1.90;;
71484;SDS011;59300;52.074;4.758;2022-08-01T13:54:05;6.78;;;1.73;;
71484;SDS011;59300;52.074;4.758;2022-08-01T13:57:06;6.25;;;1.80;;
71484;SDS011;59300;52.074;4.758;2022-08-01T14:00:07;7.05;;;1.60;;
71484;SDS011;59300;52.074;4.758;2022-08-01T14:03:13;10.07;;;2.00;;
71484;SDS011;59300;52.074;4.758;2022-08-01T14:06:14;4.40;;;1.70;;
71484;SDS011;59300;52.074;4.758;2022-08-01T14:09:14;8.90;;;1.95;;
71484;SDS011;59300;52.074;4.758;2022-08-01T14:12:15;7.53;;;1.90;;
71484;SDS011;59300;52.074;4.758;2022-08-01T14:15:15;7.75;;;1.83;;
71484;SDS011;59300;52.074;4.758;2022-08-01T14:18:16;8.30;;;1.98;;
71484;SDS011;59300;52.074;4.758;2022-08-01T14:21:17;6.88;;;1.90;;
71484;SDS011;59300;52.074;4.758;2022-08-01T14:24:17;7.55;;;1.70;;
71484;SDS011;59300;52.074;4.758;2022-08-01T14:27:17;8.93;;;2.00;;
71484;SDS011;59300;52.074;4.758;2022-08-01T14:30:18;7.53;;;1.90;;
71484;SDS011;59300;52.074;4.758;2022-08-01T14:33:18;10.23;;;1.95;;
71484;SDS011;59300;52.074;4.758;2022-08-01T14:36:18;6.13;;;1.80;;
71484;SDS011;59300;52.074;4.758;2022-08-01T14:39:19;7.65;;;2.00;;
71484;SDS011;59300;52.074;4.758;2022-08-01T14:42:25;5.22;;;1.80;;
71484;SDS011;59300;52.074;4.758;2022-08-01T14:45:26;6.90;;;1.80;;
71484;SDS011;59300;52.074;4.758;2022-08-01T14:48:39;6.65;;;1.90;;
71484;SDS011;59300;52.074;4.758;2022-08-01T14:51:39;5.90;;;1.70;;
71484;SDS011;59300;52.074;4.758;2022-08-01T14:54:40;5.95;;;1.90;;
71484;SDS011;59300;52.074;4.758;2022-08-01T14:57:40;7.32;;;2.03;;
71484;SDS011;59300;52.074;4.758;2022-08-01T15:00:41;6.05;;;2.05;;
71484;SDS011;59300;52.074;4.758;2022-08-01T15:03:41;5.20;;;1.65;;
71484;SDS011;59300;52.074;4.758;2022-08-01T15:06:42;7.13;;;1.92;;
71484;SDS011;59300;52.074;4.758;2022-08-01T15:09:42;9.90;;;1.75;;
71484;SDS011;59300;52.074;4.758;2022-08-01T15:12:43;5.97;;;1.70;;
71484;SDS011;59300;52.074;4.758;2022-08-01T15:15:43;9.63;;;1.98;;
71484;SDS011;59300;52.074;4.758;2022-08-01T15:18:43;7.03;;;1.70;;
71484;SDS011;59300;52.074;4.758;2022-08-01T15:21:44;6.25;;;1.98;;
71484;SDS011;59300;52.074;4.758;2022-08-01T15:24:44;6.95;;;2.30;;
71484;SDS011;59300;52.074;4.758;2022-08-01T15:27:45;6.97;;;1.60;;
71484;SDS011;59300;52.074;4.758;2022-08-01T15:30:45;6.05;;;1.58;;
71484;SDS011;59300;52.074;4.758;2022-08-01T15:36:49;10.53;;;2.10;;
71484;SDS011;59300;52.074;4.758;2022-08-01T15:39:49;7.20;;;1.55;;
71484;SDS011;59300;52.074;4.758;2022-08-01T15:42:49;5.38;;;1.70;;
71484;SDS011;59300;52.074;4.758;2022-08-01T15:45:50;6.15;;;1.67;;
71484;SDS011;59300;52.074;4.758;2022-08-01T15:48:50;5.00;;;1.45;;
71484;SDS011;59300;52.074;4.758;2022-08-01T15:51:50;6.75;;;1.60;;
71484;SDS011;59300;52.074;4.758;2022-08-01T15:54:51;7.32;;;1.50;;
71484;SDS011;59300;52.074;4.758;2022-08-01T15:57:51;4.45;;;1.40;;
71484;SDS011;59300;52.074;4.758;2022-08-01T16:00:51;5.03;;;1.45;;
71484;SDS011;59300;52.074;4.758;2022-08-01T16:03:52;8.13;;;1.50;;
71484;SDS011;59300;52.074;4.758;2022-08-01T16:06:53;5.72;;;1.38;;
71484;SDS011;59300;52.074;4.758;2022-08-01T16:09:56;6.18;;;1.30;;
71484;SDS011;59300;52.074;4.758;2022-08-01T16:12:57;5.60;;;1.40;;
71484;SDS011;59300;52.074;4.758;2022-08-01T16:15:57;5.15;;;1.35;;
71484;SDS011;59300;52.074;4.758;2022-08-01T16:18:57;5.30;;;1.55;;
71484;SDS011;59300;52.074;4.758;2022-08-01T16:21:58;5.57;;;1.38;;
71484;SDS011;59300;52.074;4.758;2022-08-01T16:24:58;4.18;;;1.50;;
71484;SDS011;59300;52.074;4.758;2022-08-01T16:27:58;3.75;;;1.33;;
71484;SDS011;59300;52.074;4.758;2022-08-01T16:30:59;5.47;;;1.50;;
71484;SDS011;59300;52.074;4.758;2022-08-01T16:33:59;3.22;;;1.27;;
71484;SDS011;59300;52.074;4.758;2022-08-01T16:37:00;5.82;;;1.60;;
71484;SDS011;59300;52.074;4.758;2022-08-01T16:40:00;3.47;;;1.20;;
71484;SDS011;59300;52.074;4.758;2022-08-01T16:43:00;3.75;;;1.42;;
71484;SDS011;59300;52.074;4.758;2022-08-01T16:46:01;4.18;;;1.30;;
71484;SDS011;59300;52.074;4.758;2022-08-01T16:49:01;3.78;;;1.50;;
71484;SDS011;59300;52.074;4.758;2022-08-01T16:52:02;3.92;;;1.50;;
71484;SDS011;59300;52.074;4.758;2022-08-01T16:55:03;6.43;;;1.50;;
71484;SDS011;59300;52.074;4.758;2022-08-01T16:58:05;8.75;;;1.63;;
71484;SDS011;59300;52.074;4.758;2022-08-01T17:01:07;4.05;;;1.48;;
71484;SDS011;59300;52.074;4.758;2022-08-01T17:04:08;6.82;;;1.52;;
71484;SDS011;59300;52.074;4.758;2022-08-01T17:07:08;5.63;;;1.45;;
71484;SDS011;59300;52.074;4.758;2022-08-01T17:10:09;5.60;;;1.38;;
71484;SDS011;59300;52.074;4.758;2022-08-01T17:13:09;6.10;;;1.40;;
71484;SDS011;59300;52.074;4.758;2022-08-01T17:16:09;4.30;;;1.58;;
71484;SDS011;59300;52.074;4.758;2022-08-01T17:19:10;4.25;;;1.60;;
71484;SDS011;59300;52.074;4.758;2022-08-01T17:22:11;5.13;;;1.20;;
71484;SDS011;59300;52.074;4.758;2022-08-01T17:25:11;6.55;;;1.30;;
71484;SDS011;59300;52.074;4.758;2022-08-01T17:28:11;6.65;;;1.70;;
71484;SDS011;59300;52.074;4.758;2022-08-01T17:31:12;4.47;;;1.55;;
71484;SDS011;59300;52.074;4.758;2022-08-01T17:34:12;5.35;;;1.90;;
71484;SDS011;59300;52.074;4.758;2022-08-01T17:37:13;4.68;;;1.30;;
71484;SDS011;59300;52.074;4.758;2022-08-01T17:40:13;3.53;;;1.40;;
71484;SDS011;59300;52.074;4.758;2022-08-01T17:43:14;6.82;;;1.70;;
71484;SDS011;59300;52.074;4.758;2022-08-01T17:46:15;5.28;;;1.60;;
71484;SDS011;59300;52.074;4.758;2022-08-01T17:49:15;6.85;;;1.65;;
71484;SDS011;59300;52.074;4.758;2022-08-01T17:52:16;5.55;;;1.52;;
71484;SDS011;59300;52.074;4.758;2022-08-01T17:55:16;6.07;;;1.50;;
71484;SDS011;59300;52.074;4.758;2022-08-01T17:58:22;6.95;;;1.92;;
71484;SDS011;59300;52.074;4.758;2022-08-01T18:01:26;5.45;;;1.67;;
71484;SDS011;59300;52.074;4.758;2022-08-01T18:04:26;4.18;;;1.60;;
71484;SDS011;59300;52.074;4.758;2022-08-01T18:07:26;4.13;;;1.70;;
71484;SDS011;59300;52.074;4.758;2022-08-01T18:10:27;4.75;;;1.38;;
71484;SDS011;59300;52.074;4.758;2022-08-01T18:13:27;4.05;;;1.48;;
71484;SDS011;59300;52.074;4.758;2022-08-01T18:16:28;5.88;;;1.60;;
71484;SDS011;59300;52.074;4.758;2022-08-01T18:19:28;4.90;;;1.40;;
71484;SDS011;59300;52.074;4.758;2022-08-01T18:22:29;4.70;;;1.55;;
71484;SDS011;59300;52.074;4.758;2022-08-01T18:25:29;4.07;;;1.52;;
71484;SDS011;59300;52.074;4.758;2022-08-01T18:28:29;7.75;;;1.60;;
71484;SDS011;59300;52.074;4.758;2022-08-01T18:31:30;4.93;;;1.77;;
71484;SDS011;59300;52.074;4.758;2022-08-01T18:34:30;5.10;;;1.80;;
71484;SDS011;59300;52.074;4.758;2022-08-01T18:37:30;6.50;;;1.75;;
71484;SDS011;59300;52.074;4.758;2022-08-01T18:40:31;4.90;;;1.70;;
71484;SDS011;59300;52.074;4.758;2022-08-01T18:43:31;5.75;;;1.75;;
71484;SDS011;59300;52.074;4.758;2022-08-01T18:46:31;5.38;;;1.80;;
71484;SDS011;59300;52.074;4.758;2022-08-01T18:49:37;5.03;;;2.22;;
71484;SDS011;59300;52.074;4.758;2022-08-01T18:52:42;4.65;;;1.98;;
71484;SDS011;59300;52.074;4.758;2022-08-01T18:55:42;5.63;;;1.50;;
71484;SDS011;59300;52.074;4.758;2022-08-01T18:58:43;3.08;;;1.60;;
71484;SDS011;59300;52.074;4.758;2022-08-01T19:01:43;9.30;;;2.33;;
71484;SDS011;59300;52.074;4.758;2022-08-01T19:04:44;8.65;;;1.90;;
71484;SDS011;59300;52.074;4.758;2022-08-01T19:07:44;8.40;;;2.13;;
71484;SDS011;59300;52.074;4.758;2022-08-01T19:10:44;5.32;;;1.70;;
71484;SDS011;59300;52.074;4.758;2022-08-01T19:13:45;7.13;;;1.80;;
71484;SDS011;59300;52.074;4.758;2022-08-01T19:16:47;4.88;;;1.65;;
71484;SDS011;59300;52.074;4.758;2022-08-01T19:19:48;6.82;;;1.60;;
71484;SDS011;59300;52.074;4.758;2022-08-01T19:22:54;11.00;;;2.78;;
71484;SDS011;59300;52.074;4.758;2022-08-01T19:25:55;5.78;;;1.85;;
71484;SDS011;59300;52.074;4.758;2022-08-01T19:28:57;11.10;;;2.28;;
71484;SDS011;59300;52.074;4.758;2022-08-01T19:32:02;4.57;;;1.83;;
71484;SDS011;59300;52.074;4.758;2022-08-01T19:35:05;4.65;;;2.10;;
71484;SDS011;59300;52.074;4.758;2022-08-01T19:38:07;6.65;;;2.00;;
71484;SDS011;59300;52.074;4.758;2022-08-01T19:41:08;9.05;;;2.25;;
71484;SDS011;59300;52.074;4.758;2022-08-01T19:44:10;5.82;;;1.95;;
71484;SDS011;59300;52.074;4.758;2022-08-01T19:47:15;5.13;;;2.25;;
71484;SDS011;59300;52.074;4.758;2022-08-01T19:50:16;9.38;;;2.10;;
71484;SDS011;59300;52.074;4.758;2022-08-01T19:53:17;8.50;;;2.13;;
71484;SDS011;59300;52.074;4.758;2022-08-01T19:56:23;7.40;;;2.40;;
71484;SDS011;59300;52.074;4.758;2022-08-01T19:59:25;6.40;;;2.30;;